Time;durP1;ratioP1;P1;durP2;ratioP2;P2;SDS_P1;SDS_P2;PMS_P1;PMS_P2;Temp;Humidity;BMP_temperature;BMP_pressure;BME280_temperature;BME280_humidity;BME280_pressure;Samples;Min_cycle;Max_cycle;Signal;HPM_P1;HPM_P2
2022/04/01 00:01:28;;;;;;;;;;;;;;;;;;5117624;28;19920;-79
2022/04/01 00:03:53;;;;;;;;;;;;;;;;;;5117328;28;19977;-80
2022/04/01 00:06:18;;;;;;;;;;;;;;;;;;5118115;28;19976;-79
2022/04/01 00:08:44;;;;;;;;;;;;;;;;;;5118444;27;19939;-79
2022/04/01 00:11:09;;;;;;;;;;;;;;;;;;5118336;27;19922;-79
2022/04/01 00:13:34;;;;;;;;;;;;;;;;;;5116871;28;19963;-79
2022/04/01 00:16:00;;;;;;;;;;;;;;;;;;5117883;27;20392;-79
2022/04/01 00:18:25;;;;;;;;;;;;;;;;;;5118810;28;20326;-80
2022/04/01 00:20:50;;;;;;;;;;;;;;;;;;5101672;28;19916;-80
2022/04/01 00:23:16;;;;;;;;;;;;;;;;;;5119180;28;20305;-80
2022/04/01 00:25:45;;;;;;;;;;;;;;;;;;5119880;28;20277;-80
2022/04/01 00:28:11;;;;;;;;;;;;;;;;;;5119011;28;19916;-80
2022/04/01 00:30:39;;;;;;;;;;;;;;;;;;5118730;28;20254;-80
2022/04/01 00:33:05;;;;;;;;;;;;;;;;;;5115881;28;19923;-80
2022/04/01 00:35:32;;;;;;;;;;;;;;;;;;5118340;28;20007;-80
2022/04/01 00:37:57;;;;;;;;;;;;;;;;;;5118191;28;19916;-81
2022/04/01 00:40:23;;;;;;;;;;;;;;;;;;5118595;28;19915;-81
2022/04/01 00:42:48;;;;;;;;;;;;;;;;;;5116608;28;19922;-81
2022/04/01 00:45:16;;;;;;;;;;;;;;;;;;5117912;28;19923;-81
2022/04/01 00:47:42;;;;;;;;;;;;;;;;;;5118017;27;19919;-81
2022/04/01 00:50:07;;;;;;;;;;;;;;;;;;5115518;28;19923;-81
2022/04/01 00:52:33;;;;;;;;;;;;;;;;;;5116059;28;19919;-81
2022/04/01 00:55:00;;;;;;;;;;;;;;;;;;5116926;28;19915;-81
2022/04/01 00:57:26;;;;;;;;;;;;;;;;;;5117302;28;19970;-80
2022/04/01 00:59:54;;;;;;;;;;;;;;;;;;5115384;28;19915;-80
2022/04/01 01:02:19;;;;;;;;;;;;;;;;;;5116992;27;19915;-80
2022/04/01 01:04:45;;;;;;;;;;;;;;;;;;5116612;28;19998;-80
2022/04/01 01:07:11;;;;;;;;;;;;;;;;;;5117722;28;19915;-80
2022/04/01 01:09:37;;;;;;;;;;;;;;;;;;5099187;28;19923;-80
2022/04/01 01:12:03;;;;;;;;;;;;;;;;;;5098939;28;20280;-80
2022/04/01 01:14:30;;;;;;;;;;;;;;;;;;5115128;28;19916;-80
2022/04/01 01:16:56;;;;;;;;;;;;;;;;;;5114730;28;19938;-80
2022/04/01 01:19:22;;;;;;;;;;;;;;;;;;5116784;28;19915;-80
2022/04/01 01:21:49;;;;;;;;;;;;;;;;;;5116422;28;20399;-80
2022/04/01 01:24:16;;;;;;;;;;;;;;;;;;5115120;28;19923;-80
2022/04/01 01:26:44;;;;;;;;;;;;;;;;;;5116472;28;19975;-80
2022/04/01 01:29:10;;;;;;;;;;;;;;;;;;5116837;28;20415;-80
2022/04/01 01:31:36;;;;;;;;;;;;;;;;;;5119425;28;19915;-81
2022/04/01 01:34:01;;;;;;;;;;;;;;;;;;5118714;28;19923;-81
2022/04/01 01:36:29;;;;;;;;;;;;;;;;;;5119525;28;19941;-81
2022/04/01 01:38:54;;;;;;;;;;;;;;;;;;5116675;28;19919;-81
2022/04/01 01:41:20;;;;;;;;;;;;;;;;;;5099665;28;19923;-81
2022/04/01 01:43:46;;;;;;;;;;;;;;;;;;5115298;28;19916;-80
2022/04/01 01:46:12;;;;;;;;;;;;;;;;;;5117570;28;19985;-81
2022/04/01 01:48:37;;;;;;;;;;;;;;;;;;5117577;28;19916;-81
2022/04/01 01:56:34;;;;;;;;;;;;;;;;;;5116244;28;19926;-81
2022/04/01 01:59:02;;;;;;;;;;;;;;;;;;5116165;28;19922;-81
2022/04/01 02:01:27;;;;;;;;;;;;;;;;;;5115450;28;20440;-81
2022/04/01 02:03:53;;;;;;;;;;;;;;;;;;5117032;28;19919;-81
2022/04/01 02:06:21;;;;;;;;;;;;;;;;;;5117271;27;19979;-81
2022/04/01 02:08:47;;;;;;;;;;;;;;;;;;5117347;28;19916;-81
2022/04/01 02:11:13;;;;;;;;;;;;;;;;;;5115304;28;19916;-81
2022/04/01 02:13:39;;;;;;;;;;;;;;;;;;5115973;28;20389;-82
2022/04/01 02:16:04;;;;;;;;;;;;;;;;;;5115971;28;19919;-81
2022/04/01 02:18:29;;;;;;;;;;;;;;;;;;5115928;28;20045;-81
2022/04/01 02:20:55;;;;;;;;;;;;;;;;;;5098395;28;20052;-79
2022/04/01 02:23:20;;;;;;;;;;;;;;;;;;5116547;28;20049;-82
2022/04/01 02:25:45;;;;;;;;;;;;;;;;;;5116031;28;19977;-82
2022/04/01 02:28:12;;;;;;;;;;;;;;;;;;5098709;28;20014;-82
2022/04/01 02:30:38;;;;;;;;;;;;;;;;;;5116442;28;19955;-82
2022/04/01 02:33:22;;;;;;;;;;;;;;;;;;5118111;28;19964;-82
2022/04/01 02:36:00;;;;;;;;;;;;;;;;;;5115737;28;19915;-82
2022/04/01 02:38:27;;;;;;;;;;;;;;;;;;5117437;28;20396;-82
2022/04/01 02:40:53;;;;;;;;;;;;;;;;;;5116164;28;19919;-82
2022/04/01 02:43:19;;;;;;;;;;;;;;;;;;5100014;28;20363;-82
2022/04/01 02:45:45;;;;;;;;;;;;;;;;;;5131022;27;19915;-83
2022/04/01 02:48:12;;;;;;;;;;;;;;;;;;5138710;28;19943;-83
2022/04/01 02:51:00;;;;;;;;;;;;;;;;;;5131847;28;19995;-85
2022/04/01 02:53:26;;;;;;;;;;;;;;;;;;5121567;28;19927;-83
2022/04/01 02:55:52;;;;;;;;;;;;;;;;;;5119213;28;19916;-82
2022/04/01 02:58:17;;;;;;;;;;;;;;;;;;5119685;28;19916;-82
2022/04/01 03:00:44;;;;;;;;;;;;;;;;;;5120368;28;19923;-80
2022/04/01 03:03:09;;;;;;;;;;;;;;;;;;5121765;28;19916;-80
2022/04/01 03:05:36;;;;;;;;;;;;;;;;;;5121379;28;19922;-80
2022/04/01 03:08:05;;;;;;;;;;;;;;;;;;5120705;28;19915;-79
2022/04/01 03:10:33;;;;;;;;;;;;;;;;;;5122966;28;19978;-80
2022/04/01 03:13:00;;;;;;;;;;;;;;;;;;5121255;28;19926;-80
2022/04/01 03:15:41;;;;;;;;;;;;;;;;;;5118390;28;19915;-81
2022/04/01 03:18:34;;;;;;;;;;;;;;;;;;5119826;28;19961;-80
2022/04/01 03:20:59;;;;;;;;;;;;;;;;;;5120565;28;19915;-81
2022/04/01 03:23:25;;;;;;;;;;;;;;;;;;5123548;28;20452;-81
2022/04/01 03:25:52;;;;;;;;;;;;;;;;;;5120920;28;19962;-80
2022/04/01 03:28:26;;;;;;;;;;;;;;;;;;5122065;28;19922;-80
2022/04/01 03:31:05;;;;;;;;;;;;;;;;;;5121362;28;20369;-80
2022/04/01 03:33:34;;;;;;;;;;;;;;;;;;5120710;28;19959;-80
2022/04/01 03:35:59;;;;;;;;;;;;;;;;;;5120858;28;19922;-80
2022/04/01 03:38:28;;;;;;;;;;;;;;;;;;5120064;28;20266;-80
2022/04/01 03:40:54;;;;;;;;;;;;;;;;;;5119779;28;19927;-80
2022/04/01 03:43:23;;;;;;;;;;;;;;;;;;5120220;28;20042;-80
2022/04/01 03:45:52;;;;;;;;;;;;;;;;;;5119561;28;19916;-80
2022/04/01 03:48:28;;;;;;;;;;;;;;;;;;5119598;28;19911;-80
2022/04/01 03:50:56;;;;;;;;;;;;;;;;;;5132651;27;20295;-80
2022/04/01 03:53:25;;;;;;;;;;;;;;;;;;5139535;27;20299;-80
2022/04/01 03:55:50;;;;;;;;;;;;;;;;;;5139919;27;19915;-80
2022/04/01 03:58:23;;;;;;;;;;;;;;;;;;5141425;27;19922;-80
2022/04/01 04:01:08;;;;;;;;;;;;;;;;;;5140118;27;19964;-80
2022/04/01 04:03:34;;;;;;;;;;;;;;;;;;5139838;27;19926;-80
2022/04/01 04:06:00;;;;;;;;;;;;;;;;;;5121820;27;19916;-81
2022/04/01 04:08:26;;;;;;;;;;;;;;;;;;5139535;27;20439;-80
2022/04/01 04:10:52;;;;;;;;;;;;;;;;;;5139678;27;19911;-80
2022/04/01 04:13:38;;;;;;;;;;;;;;;;;;5139957;27;19919;-80
2022/04/01 04:16:23;;;;;;;;;;;;;;;;;;5139146;27;19916;-80
2022/04/01 04:18:51;;;;;;;;;;;;;;;;;;5099489;28;20395;-81
2022/04/01 04:21:27;;;;;;;;;;;;;;;;;;5096886;28;19990;-80
2022/04/01 04:24:01;;;;;;;;;;;;;;;;;;5097487;28;19915;-80
2022/04/01 04:26:35;;;;;;;;;;;;;;;;;;5097854;28;20274;-80
2022/04/01 04:29:02;;;;;;;;;;;;;;;;;;5098358;28;19916;-81
2022/04/01 04:31:42;;;;;;;;;;;;;;;;;;5118817;28;19916;-80
2022/04/01 04:34:11;;;;;;;;;;;;;;;;;;5119208;28;19937;-80
2022/04/01 04:36:41;;;;;;;;;;;;;;;;;;5118820;28;19981;-80
2022/04/01 04:39:09;;;;;;;;;;;;;;;;;;5118173;28;19923;-78
2022/04/01 04:41:35;;;;;;;;;;;;;;;;;;5100399;28;19920;-80
2022/04/01 04:44:04;;;;;;;;;;;;;;;;;;5117911;28;20356;-80
2022/04/01 04:46:33;;;;;;;;;;;;;;;;;;5110464;28;19934;-80
2022/04/01 04:48:59;;;;;;;;;;;;;;;;;;5097227;28;19924;-80
2022/04/01 04:51:28;;;;;;;;;;;;;;;;;;5114275;28;19920;-80
2022/04/01 04:54:32;;;;;;;;;;;;;;;;;;5098725;28;19920;-81
2022/04/01 04:57:15;;;;;;;;;;;;;;;;;;5099076;28;19945;-80
2022/04/01 04:59:45;;;;;;;;;;;;;;;;;;5097630;28;20014;-80
2022/04/01 05:02:18;;;;;;;;;;;;;;;;;;5097524;28;20015;-81
2022/04/01 05:05:04;;;;;;;;;;;;;;;;;;5098374;28;19927;-80
2022/04/01 05:08:02;;;;;;;;;;;;;;;;;;5099110;28;19920;-80
2022/04/01 05:10:52;;;;;;;;;;;;;;;;;;5097825;28;19916;-80
2022/04/01 05:13:25;;;;;;;;;;;;;;;;;;5081240;28;19920;-80
2022/04/01 05:16:02;;;;;;;;;;;;;;;;;;5097530;28;19916;-79
2022/04/01 05:18:50;;;;;;;;;;;;;;;;;;5133963;27;20347;-79
2022/04/01 05:21:18;;;;;;;;;;;;;;;;;;5138439;27;19916;-80
2022/04/01 05:23:51;;;;;;;;;;;;;;;;;;5138627;27;20006;-80
2022/04/01 05:26:20;;;;;;;;;;;;;;;;;;5138062;27;19987;-79
2022/04/01 05:29:25;;;;;;;;;;;;;;;;;;5139126;27;19919;-79
2022/04/01 05:32:00;;;;;;;;;;;;;;;;;;5138012;27;19922;-79
2022/04/01 05:34:33;;;;;;;;;;;;;;;;;;5137888;27;19916;-79
2022/04/01 05:36:59;;;;;;;;;;;;;;;;;;5137249;27;20383;-79
2022/04/01 05:39:28;;;;;;;;;;;;;;;;;;5137542;27;19962;-79
2022/04/01 05:41:58;;;;;;;;;;;;;;;;;;5136305;27;19919;-79
2022/04/01 05:44:25;;;;;;;;;;;;;;;;;;5137102;27;20333;-79
2022/04/01 05:46:54;;;;;;;;;;;;;;;;;;5132431;27;19922;-79
2022/04/01 05:49:22;;;;;;;;;;;;;;;;;;5116588;28;19939;-79
2022/04/01 05:51:49;;;;;;;;;;;;;;;;;;5116580;28;19990;-79
2022/04/01 05:54:15;;;;;;;;;;;;;;;;;;5116441;28;19930;-79
2022/04/01 05:56:44;;;;;;;;;;;;;;;;;;5115718;28;19916;-79
2022/04/01 05:59:11;;;;;;;;;;;;;;;;;;5116334;28;19915;-79
2022/04/01 06:01:45;;;;;;;;;;;;;;;;;;5116545;28;19916;-79
2022/04/01 06:04:11;;;;;;;;;;;;;;;;;;5117834;28;19916;-79
2022/04/01 06:06:36;;;;;;;;;;;;;;;;;;5099222;28;19915;-79
2022/04/01 06:09:20;;;;;;;;;;;;;;;;;;5116201;28;20385;-79
2022/04/01 06:12:21;;;;;;;;;;;;;;;;;;5118321;28;19948;-79
2022/04/01 06:15:25;;;;;;;;;;;;;;;;;;5109995;28;19926;-79
2022/04/01 06:18:24;;;;;;;;;;;;;;;;;;5133319;28;20284;-79
2022/04/01 06:20:53;;;;;;;;;;;;;;;;;;5137007;28;19919;-79
2022/04/01 06:23:23;;;;;;;;;;;;;;;;;;5136889;28;19915;-79
2022/04/01 06:25:54;;;;;;;;;;;;;;;;;;5137328;28;19916;-80
2022/04/01 06:28:26;;;;;;;;;;;;;;;;;;5138979;28;19916;-80
2022/04/01 06:31:01;;;;;;;;;;;;;;;;;;5142664;27;19922;-79
2022/04/01 06:33:41;;;;;;;;;;;;;;;;;;5142257;27;20377;-80
2022/04/01 06:36:42;;;;;;;;;;;;;;;;;;5131740;27;20388;-79
2022/04/01 06:39:13;;;;;;;;;;;;;;;;;;5141483;27;19964;-79
2022/04/01 06:41:40;;;;;;;;;;;;;;;;;;5141236;27;20375;-79
2022/04/01 06:44:13;;;;;;;;;;;;;;;;;;5136211;27;19916;-79
2022/04/01 06:47:11;;;;;;;;;;;;;;;;;;5121479;28;19922;-79
2022/04/01 06:49:36;;;;;;;;;;;;;;;;;;5120380;28;20010;-79
2022/04/01 06:52:28;;;;;;;;;;;;;;;;;;5120882;28;19963;-78
2022/04/01 06:55:12;;;;;;;;;;;;;;;;;;5120091;28;19936;-79
2022/04/01 06:57:52;;;;;;;;;;;;;;;;;;5123510;28;19919;-80
2022/04/01 07:00:40;;;;;;;;;;;;;;;;;;5122605;28;19923;-81
2022/04/01 07:03:06;;;;;;;;;;;;;;;;;;5120707;28;19920;-77
2022/04/01 07:05:35;;;;;;;;;;;;;;;;;;5120777;28;20400;-79
2022/04/01 07:08:07;;;;;;;;;;;;;;;;;;5117261;28;19969;-84
2022/04/01 07:10:32;;;;;;;;;;;;;;;;;;5119121;28;19916;-79
2022/04/01 07:12:58;;;;;;;;;;;;;;;;;;5115462;28;19920;-79
2022/04/01 07:15:24;;;;;;;;;;;;;;;;;;5106558;28;19916;-79
2022/04/01 07:17:49;;;;;;;;;;;;;;;;;;5109713;27;19927;-78
2022/04/01 07:20:15;;;;;;;;;;;;;;;;;;5112423;28;19916;-78
2022/04/01 07:22:40;;;;;;;;;;;;;;;;;;5109204;28;19969;-78
2022/04/01 07:25:07;;;;;;;;;;;;;;;;;;5118344;28;20445;-79
2022/04/01 07:27:33;;;;;;;;;;;;;;;;;;5117413;28;19915;-81
2022/04/01 07:29:58;;;;;;;;;;;;;;;;;;5118112;28;20337;-77
2022/04/01 07:32:31;;;;;;;;;;;;;;;;;;5116911;28;19924;-78
2022/04/01 07:34:58;;;;;;;;;;;;;;;;;;5117050;28;19916;-77
2022/04/01 07:37:26;;;;;;;;;;;;;;;;;;5116808;27;19911;-77
2022/04/01 07:39:52;;;;;;;;;;;;;;;;;;5116869;28;19975;-78
2022/04/01 07:42:20;;;;;;;;;;;;;;;;;;5116499;28;20018;-77
2022/04/01 07:44:45;;;;;;;;;;;;;;;;;;5116664;28;20014;-78
2022/04/01 07:47:14;;;;;;;;;;;;;;;;;;5107142;28;19966;-78
2022/04/01 07:49:40;;;;;;;;;;;;;;;;;;5096600;28;19912;-78
2022/04/01 07:52:08;;;;;;;;;;;;;;;;;;5096861;28;19920;-77
2022/04/01 07:54:34;;;;;;;;;;;;;;;;;;5106833;28;19916;-76
2022/04/01 07:56:59;;;;;;;;;;;;;;;;;;5107185;28;19961;-77
2022/04/01 07:59:25;;;;;;;;;;;;;;;;;;5102132;28;19916;-77
2022/04/01 08:01:51;;;;;;;;;;;;;;;;;;5095682;28;20411;-77
2022/04/01 08:04:16;;;;;;;;;;;;;;;;;;5096317;28;19916;-77
2022/04/01 08:06:42;;;;;;;;;;;;;;;;;;5096659;28;20376;-77
2022/04/01 08:09:08;;;;;;;;;;;;;;;;;;5100250;28;20429;-78
2022/04/01 08:11:33;;;;;;;;;;;;;;;;;;5103297;28;19916;-78
2022/04/01 08:13:59;;;;;;;;;;;;;;;;;;5097691;28;19973;-78
2022/04/01 08:16:24;;;;;;;;;;;;;;;;;;5104721;28;19920;-78
2022/04/01 08:18:50;;;;;;;;;;;;;;;;;;5105161;27;20077;-78
2022/04/01 08:21:16;;;;;;;;;;;;;;;;;;5102336;27;19916;-78
2022/04/01 08:23:41;;;;;;;;;;;;;;;;;;5116026;28;19968;-78
2022/04/01 08:26:07;;;;;;;;;;;;;;;;;;5114601;28;20266;-77
2022/04/01 08:28:33;;;;;;;;;;;;;;;;;;5115752;28;19920;-78
2022/04/01 08:30:58;;;;;;;;;;;;;;;;;;5116637;28;19916;-77
2022/04/01 08:33:24;;;;;;;;;;;;;;;;;;5122327;28;20418;-78
2022/04/01 08:35:49;;;;;;;;;;;;;;;;;;5118885;28;19974;-76
2022/04/01 08:38:14;;;;;;;;;;;;;;;;;;5115610;28;19915;-77
2022/04/01 08:40:40;;;;;;;;;;;;;;;;;;5114171;28;19912;-77
2022/04/01 08:43:05;;;;;;;;;;;;;;;;;;5115372;28;20376;-77
2022/04/01 08:45:36;;;;;;;;;;;;;;;;;;5115244;28;19937;-78
2022/04/01 08:48:03;;;;;;;;;;;;;;;;;;5114339;28;19923;-77
2022/04/01 08:50:28;;;;;;;;;;;;;;;;;;5114616;28;19922;-77
2022/04/01 08:52:53;;;;;;;;;;;;;;;;;;5114169;28;19924;-77
2022/04/01 08:55:19;;;;;;;;;;;;;;;;;;5115273;28;20373;-77
2022/04/01 08:57:45;;;;;;;;;;;;;;;;;;5115567;28;19919;-78
2022/04/01 09:00:13;;;;;;;;;;;;;;;;;;5115243;28;20014;-77
2022/04/01 09:02:38;;;;;;;;;;;;;;;;;;5115383;28;20001;-78
2022/04/01 09:05:04;;;;;;;;;;;;;;;;;;5094658;28;20011;-78
2022/04/01 09:07:29;;;;;;;;;;;;;;;;;;5094204;28;19951;-77
2022/04/01 09:10:01;;;;;;;;;;;;;;;;;;5114656;28;19945;-78
2022/04/01 09:12:26;;;;;;;;;;;;;;;;;;5114919;28;20022;-77
2022/04/01 09:14:53;;;;;;;;;;;;;;;;;;5114698;28;19966;-78
2022/04/01 09:17:18;;;;;;;;;;;;;;;;;;5120465;28;20017;-78
2022/04/01 09:19:44;;;;;;;;;;;;;;;;;;5115073;28;19962;-77
2022/04/01 09:22:16;;;;;;;;;;;;;;;;;;5115329;28;19954;-77
2022/04/01 09:25:03;;;;;;;;;;;;;;;;;;5115374;28;19922;-77
2022/04/01 09:30:33;;;;;;;;;;;;;;;;;;5113104;28;19916;-78
2022/04/01 09:33:01;;;;;;;;;;;;;;;;;;5096345;28;20381;-78
2022/04/01 09:35:37;;;;;;;;;;;;;;;;;;5095022;28;20273;-78
2022/04/01 09:38:13;;;;;;;;;;;;;;;;;;5113286;28;19916;-77
2022/04/01 09:40:54;;;;;;;;;;;;;;;;;;5082696;28;20366;-77
2022/04/01 09:43:28;;;;;;;;;;;;;;;;;;5096930;27;19922;-78
2022/04/01 09:46:25;;;;;;;;;;;;;;;;;;5116611;28;19964;-78
2022/04/01 09:49:05;;;;;;;;;;;;;;;;;;5115990;28;19916;-78
2022/04/01 09:51:33;;;;;;;;;;;;;;;;;;5113583;28;20301;-78
2022/04/01 09:54:04;;;;;;;;;;;;;;;;;;5115030;28;19919;-78
2022/04/01 09:56:43;;;;;;;;;;;;;;;;;;5097660;28;19923;-78
2022/04/01 09:59:37;;;;;;;;;;;;;;;;;;5116230;28;19941;-78
2022/04/01 10:02:42;;;;;;;;;;;;;;;;;;5117159;28;19915;-78
2022/04/01 10:05:47;;;;;;;;;;;;;;;;;;5114524;28;19996;-77
2022/04/01 10:08:53;;;;;;;;;;;;;;;;;;5113317;28;20368;-76
2022/04/01 10:11:23;;;;;;;;;;;;;;;;;;5095695;28;19916;-76
2022/04/01 10:14:10;;;;;;;;;;;;;;;;;;5112661;28;20037;-77
2022/04/01 10:16:42;;;;;;;;;;;;;;;;;;5094991;28;20002;-77
2022/04/01 10:19:13;;;;;;;;;;;;;;;;;;5112646;28;19923;-77
2022/04/01 10:21:51;;;;;;;;;;;;;;;;;;5095477;28;19923;-77
2022/04/01 10:24:35;;;;;;;;;;;;;;;;;;5079516;28;19927;-78
2022/04/01 10:27:18;;;;;;;;;;;;;;;;;;5098451;28;19964;-78
2022/04/01 10:29:48;;;;;;;;;;;;;;;;;;5114021;28;20294;-77
2022/04/01 10:32:28;;;;;;;;;;;;;;;;;;5116091;27;19920;-78
2022/04/01 10:35:08;;;;;;;;;;;;;;;;;;5119126;28;19951;-78
2022/04/01 10:37:38;;;;;;;;;;;;;;;;;;5110419;28;19919;-78
2022/04/01 10:40:28;;;;;;;;;;;;;;;;;;5112050;28;19915;-76
2022/04/01 10:43:26;;;;;;;;;;;;;;;;;;5096061;28;19919;-78
2022/04/01 10:46:19;;;;;;;;;;;;;;;;;;5136299;27;19915;-78
2022/04/01 10:52:23;;;;;;;;;;;;;;;;;;5135422;27;19920;-77
2022/04/01 10:55:18;;;;;;;;;;;;;;;;;;5137519;28;19925;-79
2022/04/01 10:58:07;;;;;;;;;;;;;;;;;;5110827;28;20113;-78
2022/04/01 11:00:41;;;;;;;;;;;;;;;;;;5093113;28;19920;-79
2022/04/01 11:03:23;;;;;;;;;;;;;;;;;;5113071;28;19916;-79
2022/04/01 11:06:28;;;;;;;;;;;;;;;;;;5113857;28;19915;-79
2022/04/01 11:09:17;;;;;;;;;;;;;;;;;;5080884;28;19916;-79
2022/04/01 11:12:15;;;;;;;;;;;;;;;;;;5110147;28;20354;-79
2022/04/01 11:15:24;;;;;;;;;;;;;;;;;;5111498;28;19978;-79
2022/04/01 11:17:58;;;;;;;;;;;;;;;;;;5127840;28;19915;-79
2022/04/01 11:20:35;;;;;;;;;;;;;;;;;;5125919;28;19955;-79
2022/04/01 11:23:10;;;;;;;;;;;;;;;;;;5109512;28;20010;-79
2022/04/01 11:25:47;;;;;;;;;;;;;;;;;;5121987;27;19922;-80
2022/04/01 11:28:32;;;;;;;;;;;;;;;;;;5145719;27;20281;-79
2022/04/01 11:31:10;;;;;;;;;;;;;;;;;;5143932;27;19961;-79
2022/04/01 11:34:01;;;;;;;;;;;;;;;;;;5145849;27;19916;-79
2022/04/01 11:36:33;;;;;;;;;;;;;;;;;;5128263;27;19941;-79
2022/04/01 11:39:04;;;;;;;;;;;;;;;;;;5121299;27;19923;-79
2022/04/01 11:41:48;;;;;;;;;;;;;;;;;;5144928;27;19923;-79
2022/04/01 11:44:18;;;;;;;;;;;;;;;;;;5103190;28;19916;-79
2022/04/01 11:46:55;;;;;;;;;;;;;;;;;;5100846;28;19927;-80
2022/04/01 11:49:25;;;;;;;;;;;;;;;;;;5098698;28;19916;-80
2022/04/01 11:52:12;;;;;;;;;;;;;;;;;;5115261;28;19916;-80
2022/04/01 11:54:46;;;;;;;;;;;;;;;;;;5110977;28;19916;-79
2022/04/01 11:57:34;;;;;;;;;;;;;;;;;;5127344;28;20387;-79
2022/04/01 12:00:04;;;;;;;;;;;;;;;;;;5109878;28;20442;-80
2022/04/01 12:02:47;;;;;;;;;;;;;;;;;;5127018;27;19919;-80
2022/04/01 12:05:18;;;;;;;;;;;;;;;;;;5108977;28;20361;-79
2022/04/01 12:11:05;;;;;;;;;;;;;;;;;;5144162;27;19919;-80
2022/04/01 12:13:44;;;;;;;;;;;;;;;;;;5127884;27;19919;-80
2022/04/01 12:16:11;;;;;;;;;;;;;;;;;;5129517;27;20436;-80
2022/04/01 12:18:43;;;;;;;;;;;;;;;;;;5113730;27;20035;-80
2022/04/01 12:21:17;;;;;;;;;;;;;;;;;;5112706;27;20323;-79
2022/04/01 12:23:45;;;;;;;;;;;;;;;;;;5129737;27;19915;-79
2022/04/01 12:26:28;;;;;;;;;;;;;;;;;;5129160;27;20018;-79
2022/04/01 12:28:54;;;;;;;;;;;;;;;;;;5109837;27;19915;-79
2022/04/01 12:31:24;;;;;;;;;;;;;;;;;;5106779;27;19947;-77
2022/04/01 12:33:53;;;;;;;;;;;;;;;;;;5104551;27;19923;-80
2022/04/01 12:36:38;;;;;;;;;;;;;;;;;;5110016;27;19916;-80
2022/04/01 12:39:08;;;;;;;;;;;;;;;;;;5111552;27;19921;-79
2022/04/01 12:41:33;;;;;;;;;;;;;;;;;;5128577;27;19915;-80
2022/04/01 12:44:14;;;;;;;;;;;;;;;;;;5111200;27;19915;-80
2022/04/01 12:46:48;;;;;;;;;;;;;;;;;;5111220;27;20038;-80
2022/04/01 12:49:30;;;;;;;;;;;;;;;;;;5107225;28;19966;-80
2022/04/01 12:52:03;;;;;;;;;;;;;;;;;;5122396;28;19954;-80
2022/04/01 12:54:38;;;;;;;;;;;;;;;;;;5122710;27;19931;-80
2022/04/01 12:57:08;;;;;;;;;;;;;;;;;;5107370;27;19915;-81
2022/04/01 12:59:39;;;;;;;;;;;;;;;;;;5121944;28;19938;-81
2022/04/01 13:02:06;;;;;;;;;;;;;;;;;;5126496;28;19919;-81
2022/04/01 13:04:39;;;;;;;;;;;;;;;;;;5125537;28;19937;-81
2022/04/01 13:07:12;;;;;;;;;;;;;;;;;;5125250;28;19922;-81
2022/04/01 13:09:51;;;;;;;;;;;;;;;;;;5107786;28;19916;-78
2022/04/01 13:12:51;;;;;;;;;;;;;;;;;;5126136;28;19916;-81
2022/04/01 13:15:27;;;;;;;;;;;;;;;;;;5123978;28;19923;-81
2022/04/01 13:17:55;;;;;;;;;;;;;;;;;;5107725;28;19926;-81
2022/04/01 13:20:30;;;;;;;;;;;;;;;;;;5125953;27;19923;-80
2022/04/01 13:23:03;;;;;;;;;;;;;;;;;;5144872;27;19966;-81
2022/04/01 13:25:34;;;;;;;;;;;;;;;;;;5143757;27;19916;-81
2022/04/01 13:28:01;;;;;;;;;;;;;;;;;;5128401;27;19972;-81
2022/04/01 13:30:29;;;;;;;;;;;;;;;;;;5127791;27;19915;-80
2022/04/01 13:33:15;;;;;;;;;;;;;;;;;;5126892;27;19916;-81
2022/04/01 13:35:44;;;;;;;;;;;;;;;;;;5143309;27;19991;-81
2022/04/01 13:38:14;;;;;;;;;;;;;;;;;;5142495;27;19968;-81
2022/04/01 13:40:43;;;;;;;;;;;;;;;;;;5141976;27;19937;-81
2022/04/01 13:43:13;;;;;;;;;;;;;;;;;;5126042;27;19919;-81
2022/04/01 13:45:44;;;;;;;;;;;;;;;;;;5144055;27;19926;-81
2022/04/01 13:48:12;;;;;;;;;;;;;;;;;;5143690;27;20357;-81
2022/04/01 13:50:49;;;;;;;;;;;;;;;;;;5123597;28;19923;-81
2022/04/01 13:53:14;;;;;;;;;;;;;;;;;;5101619;28;21345;-81
2022/04/01 13:55:49;;;;;;;;;;;;;;;;;;5107166;28;19923;-80
2022/04/01 13:58:18;;;;;;;;;;;;;;;;;;5069781;28;19920;-81
2022/04/01 14:00:51;;;;;;;;;;;;;;;;;;5098519;28;19927;-81
2022/04/01 14:03:27;;;;;;;;;;;;;;;;;;5102810;28;19923;-81
2022/04/01 14:05:59;;;;;;;;;;;;;;;;;;5102831;28;20277;-81
2022/04/01 14:08:26;;;;;;;;;;;;;;;;;;5115846;28;19919;-81
2022/04/01 14:11:05;;;;;;;;;;;;;;;;;;5087625;28;19916;-81
2022/04/01 14:13:37;;;;;;;;;;;;;;;;;;5086105;28;19920;-81
2022/04/01 14:16:21;;;;;;;;;;;;;;;;;;5103557;28;19916;-80
2022/04/01 14:18:49;;;;;;;;;;;;;;;;;;5140346;28;20081;-81
2022/04/01 14:21:22;;;;;;;;;;;;;;;;;;5119038;27;20301;-83
2022/04/01 14:23:53;;;;;;;;;;;;;;;;;;5096954;28;19937;-81
2022/04/01 14:26:19;;;;;;;;;;;;;;;;;;5080061;28;19916;-81
2022/04/01 14:28:48;;;;;;;;;;;;;;;;;;5095067;28;19989;-80
2022/04/01 14:31:57;;;;;;;;;;;;;;;;;;5107725;28;19916;-81
2022/04/01 14:34:27;;;;;;;;;;;;;;;;;;5091070;28;19934;-81
2022/04/01 14:36:54;;;;;;;;;;;;;;;;;;5101449;28;19922;-81
2022/04/01 14:39:27;;;;;;;;;;;;;;;;;;5090366;28;19915;-81
2022/04/01 14:41:54;;;;;;;;;;;;;;;;;;5114908;28;19915;-81
2022/04/01 14:44:22;;;;;;;;;;;;;;;;;;5091122;28;19969;-81
2022/04/01 14:46:56;;;;;;;;;;;;;;;;;;5106094;28;19916;-81
2022/04/01 14:49:22;;;;;;;;;;;;;;;;;;5078288;28;19927;-78
2022/04/01 14:51:52;;;;;;;;;;;;;;;;;;5107728;28;19924;-81
2022/04/01 14:54:22;;;;;;;;;;;;;;;;;;5093581;28;19959;-81
2022/04/01 14:56:51;;;;;;;;;;;;;;;;;;5092894;28;20304;-81
2022/04/01 14:59:23;;;;;;;;;;;;;;;;;;5121492;28;20399;-81
2022/04/01 15:01:58;;;;;;;;;;;;;;;;;;5122744;28;20293;-81
2022/04/01 15:04:26;;;;;;;;;;;;;;;;;;5088934;28;19927;-81
2022/04/01 15:07:07;;;;;;;;;;;;;;;;;;5133608;27;20412;-81
2022/04/01 15:09:40;;;;;;;;;;;;;;;;;;5126463;27;19921;-81
2022/04/01 15:12:24;;;;;;;;;;;;;;;;;;5129720;27;19927;-81
2022/04/01 15:14:54;;;;;;;;;;;;;;;;;;5143258;27;19983;-81
2022/04/01 15:17:43;;;;;;;;;;;;;;;;;;5134173;27;20360;-81
2022/04/01 15:20:14;;;;;;;;;;;;;;;;;;5105967;28;20356;-81
2022/04/01 15:22:52;;;;;;;;;;;;;;;;;;5089977;28;20266;-81
2022/04/01 15:25:23;;;;;;;;;;;;;;;;;;5105265;28;20369;-81
2022/04/01 15:28:17;;;;;;;;;;;;;;;;;;5105101;28;19947;-81
2022/04/01 15:30:48;;;;;;;;;;;;;;;;;;5101833;28;19955;-81
2022/04/01 15:33:14;;;;;;;;;;;;;;;;;;5104662;28;20425;-81
2022/04/01 15:35:55;;;;;;;;;;;;;;;;;;5121408;28;19916;-80
2022/04/01 15:38:39;;;;;;;;;;;;;;;;;;5118976;28;20014;-81
2022/04/01 15:41:12;;;;;;;;;;;;;;;;;;5105453;28;19915;-81
2022/04/01 15:44:11;;;;;;;;;;;;;;;;;;5120725;28;20440;-81
2022/04/01 15:46:47;;;;;;;;;;;;;;;;;;5104902;28;19915;-80
2022/04/01 15:49:23;;;;;;;;;;;;;;;;;;5104789;28;19951;-81
2022/04/01 15:51:53;;;;;;;;;;;;;;;;;;5104151;28;20378;-81
2022/04/01 15:54:30;;;;;;;;;;;;;;;;;;5122169;27;19920;-80
2022/04/01 15:56:57;;;;;;;;;;;;;;;;;;5119919;28;19960;-81
2022/04/01 15:59:40;;;;;;;;;;;;;;;;;;5120715;27;19960;-81
2022/04/01 16:02:09;;;;;;;;;;;;;;;;;;5119867;28;19923;-81
2022/04/01 16:04:43;;;;;;;;;;;;;;;;;;5120424;28;19919;-81
2022/04/01 16:07:15;;;;;;;;;;;;;;;;;;5103879;28;19923;-80
2022/04/01 16:09:45;;;;;;;;;;;;;;;;;;5121511;28;19916;-81
2022/04/01 16:12:16;;;;;;;;;;;;;;;;;;5103177;28;19915;-81
2022/04/01 16:14:58;;;;;;;;;;;;;;;;;;5121720;28;19916;-81
2022/04/01 16:17:26;;;;;;;;;;;;;;;;;;5122287;28;19919;-81
2022/04/01 16:19:55;;;;;;;;;;;;;;;;;;5104299;28;19920;-81
2022/04/01 16:22:24;;;;;;;;;;;;;;;;;;5103652;28;19916;-81
2022/04/01 16:24:53;;;;;;;;;;;;;;;;;;5116836;28;19915;-81
2022/04/01 16:27:26;;;;;;;;;;;;;;;;;;5104071;28;19916;-81
2022/04/01 16:29:56;;;;;;;;;;;;;;;;;;5104061;28;19919;-80
2022/04/01 16:32:23;;;;;;;;;;;;;;;;;;5119600;28;19959;-81
2022/04/01 16:34:52;;;;;;;;;;;;;;;;;;5102443;28;19916;-81
2022/04/01 16:37:25;;;;;;;;;;;;;;;;;;5120256;28;19984;-82
2022/04/01 16:39:51;;;;;;;;;;;;;;;;;;5119103;28;19915;-82
2022/04/01 16:42:26;;;;;;;;;;;;;;;;;;5085603;28;19923;-82
2022/04/01 16:44:53;;;;;;;;;;;;;;;;;;5101150;28;19922;-82
2022/04/01 16:47:19;;;;;;;;;;;;;;;;;;5122698;27;19990;-81
2022/04/01 16:49:49;;;;;;;;;;;;;;;;;;5138746;27;20365;-82
2022/04/01 16:52:20;;;;;;;;;;;;;;;;;;5122130;27;20375;-82
2022/04/01 16:54:57;;;;;;;;;;;;;;;;;;5139588;27;19941;-81
2022/04/01 16:57:27;;;;;;;;;;;;;;;;;;5123167;27;19999;-82
2022/04/01 16:59:56;;;;;;;;;;;;;;;;;;5138894;27;20376;-82
2022/04/01 17:02:25;;;;;;;;;;;;;;;;;;5139024;27;19919;-83
2022/04/01 17:04:52;;;;;;;;;;;;;;;;;;5121568;27;19951;-82
2022/04/01 17:12:56;;;;;;;;;;;;;;;;;;5111994;28;19920;-82
2022/04/01 17:15:24;;;;;;;;;;;;;;;;;;5113401;28;20305;-82
2022/04/01 17:18:05;;;;;;;;;;;;;;;;;;5109437;28;19916;-81
2022/04/01 17:20:51;;;;;;;;;;;;;;;;;;5110844;28;20289;-82
2022/04/01 17:23:30;;;;;;;;;;;;;;;;;;5091567;28;20412;-81
2022/04/01 17:26:04;;;;;;;;;;;;;;;;;;5108134;28;19955;-81
2022/04/01 17:28:33;;;;;;;;;;;;;;;;;;5109904;28;19920;-81
2022/04/01 17:31:04;;;;;;;;;;;;;;;;;;5112166;28;19924;-81
2022/04/01 17:33:36;;;;;;;;;;;;;;;;;;5107414;28;19985;-82
2022/04/01 17:36:08;;;;;;;;;;;;;;;;;;5115974;28;20357;-82
2022/04/01 17:38:38;;;;;;;;;;;;;;;;;;5095758;28;19916;-82
2022/04/01 17:41:18;;;;;;;;;;;;;;;;;;5088242;28;19920;-82
2022/04/01 17:43:53;;;;;;;;;;;;;;;;;;5107792;28;20018;-82